createdAt,value
2019-01-27T00:00:11.592Z,0.90
2019-01-27T00:01:11.571Z,0.50
2019-01-27T00:02:11.569Z,0.50
2019-01-27T00:03:11.546Z,0.70
2019-01-27T00:04:11.547Z,0.50
2019-01-27T00:05:11.535Z,0.60
2019-01-27T00:06:11.531Z,0.50
2019-01-27T00:07:11.533Z,0.60
2019-01-27T00:08:13.708Z,0.50
2019-01-27T00:09:11.488Z,0.50
2019-01-27T00:10:11.473Z,0.50
2019-01-27T00:11:11.504Z,0.40
2019-01-27T00:12:11.467Z,0.60
2019-01-27T00:13:11.445Z,0.50
2019-01-27T00:14:11.430Z,0.50
2019-01-27T00:15:11.423Z,0.80
2019-01-27T00:16:11.400Z,0.70
2019-01-27T00:17:11.405Z,0.70
2019-01-27T00:18:11.395Z,0.60
2019-01-27T00:19:11.374Z,0.70
2019-01-27T00:20:11.362Z,0.60
2019-01-27T00:21:11.364Z,0.70
2019-01-27T00:22:11.389Z,0.80
2019-01-27T00:23:11.345Z,1.00
2019-01-27T00:24:11.368Z,0.90
2019-01-27T00:25:11.333Z,0.80
2019-01-27T00:26:11.299Z,0.80
2019-01-27T00:27:11.306Z,0.80
2019-01-27T00:28:11.340Z,0.90
2019-01-27T00:29:11.272Z,1.00
2019-01-27T00:30:11.244Z,0.70
2019-01-27T00:31:11.234Z,0.50
2019-01-27T00:32:11.230Z,0.80
2019-01-27T00:33:11.232Z,0.90
2019-01-27T00:34:11.221Z,0.90
2019-01-27T00:35:11.217Z,0.60
2019-01-27T00:36:11.202Z,0.70
2019-01-27T00:37:11.184Z,0.80
2019-01-27T00:38:11.170Z,0.60
2019-01-27T00:39:11.170Z,0.80
2019-01-27T00:40:11.170Z,0.50
2019-01-27T00:41:11.143Z,0.70
2019-01-27T00:42:11.129Z,0.50
2019-01-27T00:43:11.144Z,0.50
2019-01-27T00:44:11.212Z,0.70
2019-01-27T00:45:11.122Z,0.50
2019-01-27T00:46:11.083Z,0.60
2019-01-27T00:47:11.088Z,0.60
2019-01-27T00:48:11.056Z,0.60
2019-01-27T00:49:11.053Z,0.70
2019-01-27T00:50:11.032Z,0.70
2019-01-27T00:51:11.030Z,0.50
2019-01-27T00:52:11.026Z,0.60
2019-01-27T00:53:11.004Z,0.70
2019-01-27T00:54:11.032Z,0.60
2019-01-27T00:55:10.986Z,0.70
2019-01-27T00:56:10.967Z,0.70
2019-01-27T00:57:10.983Z,0.70
2019-01-27T00:58:10.949Z,0.60
2019-01-27T00:59:10.931Z,0.50
2019-01-27T01:00:10.936Z,0.60
2019-01-27T01:01:10.915Z,0.50
2019-01-27T01:02:10.905Z,0.40
2019-01-27T01:03:10.899Z,0.50
2019-01-27T01:04:10.925Z,0.50
2019-01-27T01:05:10.874Z,0.50
2019-01-27T01:06:10.891Z,0.40
2019-01-27T01:07:10.848Z,0.50
2019-01-27T01:08:10.856Z,0.40
2019-01-27T01:09:10.854Z,0.50
2019-01-27T01:10:10.814Z,0.50
2019-01-27T01:11:10.807Z,0.60
2019-01-27T01:12:10.796Z,0.70
2019-01-27T01:13:10.789Z,0.70
2019-01-27T01:14:10.822Z,0.70
2019-01-27T01:15:10.779Z,0.80
2019-01-27T01:16:10.748Z,0.60
2019-01-27T01:17:10.733Z,0.50
2019-01-27T01:18:10.736Z,0.60
2019-01-27T01:19:10.719Z,0.80
2019-01-27T01:20:10.772Z,0.80
2019-01-27T01:21:10.694Z,0.40
2019-01-27T01:22:10.684Z,0.50
2019-01-27T01:23:10.695Z,0.50
2019-01-27T01:24:10.682Z,0.70
2019-01-27T01:25:10.682Z,0.60
2019-01-27T01:26:10.675Z,0.30
2019-01-27T01:27:10.637Z,0.40
2019-01-27T01:28:10.646Z,0.40
2019-01-27T01:29:10.603Z,0.40
2019-01-27T01:30:10.604Z,0.40
2019-01-27T01:31:10.675Z,0.50
2019-01-27T01:32:10.577Z,0.40
2019-01-27T01:33:10.579Z,0.50
2019-01-27T01:34:10.561Z,0.50
2019-01-27T01:35:10.557Z,0.40
2019-01-27T01:36:10.548Z,0.40
2019-01-27T01:37:10.531Z,0.40
2019-01-27T01:38:10.540Z,0.40
2019-01-27T01:39:10.496Z,0.40
2019-01-27T01:40:10.503Z,0.40
2019-01-27T01:41:10.482Z,0.50
2019-01-27T01:42:10.471Z,0.60
2019-01-27T01:43:10.473Z,0.30
2019-01-27T01:44:10.490Z,0.40
2019-01-27T01:45:10.442Z,0.50
2019-01-27T01:46:10.442Z,0.40
2019-01-27T01:47:10.413Z,0.40
2019-01-27T01:48:10.400Z,0.40
2019-01-27T01:49:10.391Z,0.40
2019-01-27T01:50:10.389Z,0.40
2019-01-27T01:51:10.367Z,0.40
2019-01-27T01:52:10.372Z,0.40
2019-01-27T01:53:10.370Z,0.50
2019-01-27T01:54:10.333Z,0.30
2019-01-27T01:55:10.379Z,0.40
2019-01-27T01:56:10.327Z,0.30
2019-01-27T01:57:10.327Z,0.30
2019-01-27T01:58:10.307Z,0.30
2019-01-27T01:59:10.303Z,0.40
2019-01-27T02:00:10.273Z,0.40
2019-01-27T02:01:10.265Z,0.40
2019-01-27T02:02:10.246Z,0.40
2019-01-27T02:03:10.247Z,0.20
2019-01-27T02:04:10.232Z,0.40
2019-01-27T02:05:10.233Z,0.30
2019-01-27T02:06:10.205Z,0.40
2019-01-27T02:07:10.246Z,0.40
2019-01-27T02:08:10.219Z,0.30
2019-01-27T02:09:10.193Z,0.40
2019-01-27T02:10:10.197Z,0.50
2019-01-27T02:11:10.155Z,0.40
2019-01-27T02:12:10.158Z,0.40
2019-01-27T02:13:10.125Z,0.30
2019-01-27T02:14:10.140Z,0.40
2019-01-27T02:15:10.120Z,0.50
2019-01-27T02:16:10.125Z,0.50
2019-01-27T02:17:10.145Z,0.40
2019-01-27T02:18:10.093Z,0.40
2019-01-27T02:19:10.098Z,0.40
2019-01-27T02:20:10.095Z,0.40
2019-01-27T02:21:10.047Z,0.40
2019-01-27T02:22:10.042Z,0.30
2019-01-27T02:23:10.033Z,0.40
2019-01-27T02:24:10.026Z,0.30
2019-01-27T02:25:09.995Z,0.30
2019-01-27T02:26:09.985Z,0.30
2019-01-27T02:27:09.974Z,0.40
2019-01-27T02:28:09.965Z,0.30
2019-01-27T02:29:10.000Z,0.30
2019-01-27T02:30:09.965Z,0.30
2019-01-27T02:31:09.945Z,0.30
2019-01-27T02:32:09.937Z,0.40
2019-01-27T02:33:09.905Z,0.30
2019-01-27T02:34:10.005Z,0.30
2019-01-27T02:35:09.914Z,0.30
2019-01-27T02:36:09.888Z,0.30
2019-01-27T02:37:09.878Z,0.30
2019-01-27T02:38:09.859Z,0.30
2019-01-27T02:39:09.847Z,0.20
2019-01-27T02:40:09.866Z,0.20
2019-01-27T02:41:09.841Z,0.20
2019-01-27T02:42:09.849Z,0.20
2019-01-27T02:43:09.836Z,0.20
2019-01-27T02:44:09.814Z,0.10
2019-01-27T02:45:09.789Z,0.20
2019-01-27T02:46:09.768Z,0.10
2019-01-27T02:47:09.766Z,0.20
2019-01-27T02:48:09.780Z,0.20
2019-01-27T02:49:09.762Z,0.20
2019-01-27T02:50:09.749Z,0.20
2019-01-27T02:51:09.736Z,0.20
2019-01-27T02:52:09.714Z,0.10
2019-01-27T02:53:09.700Z,0.10
2019-01-27T02:54:09.691Z,0.20
2019-01-27T02:55:09.748Z,0.20
2019-01-27T02:56:09.706Z,0.20
2019-01-27T02:57:09.680Z,0.20
2019-01-27T02:58:09.656Z,0.20
2019-01-27T02:59:09.711Z,0.20
2019-01-27T03:00:09.649Z,0.10
2019-01-27T03:01:09.636Z,0.20
2019-01-27T03:02:09.622Z,0.10
2019-01-27T03:03:09.599Z,0.10
2019-01-27T03:04:09.578Z,0.20
2019-01-27T03:05:09.576Z,0.20
2019-01-27T03:06:09.556Z,0.20
2019-01-27T03:07:09.557Z,0.10
2019-01-27T03:08:09.603Z,0.20
2019-01-27T03:09:09.564Z,0.20
2019-01-27T03:10:09.517Z,0.20
2019-01-27T03:11:09.510Z,0.20
2019-01-27T03:12:09.537Z,0.10
2019-01-27T03:13:09.496Z,0.10
2019-01-27T03:14:09.505Z,0.10
2019-01-27T03:15:09.465Z,0.20
2019-01-27T03:16:09.450Z,0.20
2019-01-27T03:17:09.444Z,0.20
2019-01-27T03:18:09.426Z,0.10
2019-01-27T03:19:09.418Z,0.10
2019-01-27T03:20:09.419Z,0.30
2019-01-27T03:21:09.421Z,0.20
2019-01-27T03:22:09.394Z,0.10
2019-01-27T03:23:09.422Z,0.20
2019-01-27T03:24:09.370Z,0.20
2019-01-27T03:25:09.353Z,0.20
2019-01-27T03:26:09.371Z,0.20
2019-01-27T03:27:09.333Z,0.20
2019-01-27T03:28:09.360Z,0.20
2019-01-27T03:29:09.299Z,0.10
2019-01-27T03:30:09.294Z,0.30
2019-01-27T03:31:09.332Z,0.20
2019-01-27T03:32:09.283Z,0.20
2019-01-27T03:33:09.296Z,0.10
2019-01-27T03:34:09.254Z,0.20
2019-01-27T03:35:09.265Z,0.20
2019-01-27T03:36:09.234Z,0.20
2019-01-27T03:37:09.246Z,0.10
2019-01-27T03:38:09.238Z,0.20
2019-01-27T03:39:09.224Z,0.20
2019-01-27T03:40:09.207Z,0.10
2019-01-27T03:41:09.196Z,0.30
2019-01-27T03:42:09.163Z,0.20
2019-01-27T03:43:09.208Z,0.10
2019-01-27T03:44:09.151Z,0.20
2019-01-27T03:45:09.168Z,0.20
2019-01-27T03:46:09.134Z,0.20
2019-01-27T03:47:09.145Z,0.20
2019-01-27T03:48:09.111Z,0.20
2019-01-27T03:49:09.117Z,0.20
2019-01-27T03:50:09.074Z,0.20
2019-01-27T03:51:09.091Z,0.10
2019-01-27T03:52:09.058Z,0.20
2019-01-27T03:53:09.060Z,0.10
2019-01-27T03:54:09.047Z,0.20
2019-01-27T03:55:09.033Z,0.20
2019-01-27T03:56:09.014Z,0.20
2019-01-27T03:57:09.042Z,0.20
2019-01-27T03:58:09.040Z,0.10
2019-01-27T03:59:09.038Z,0.20
2019-01-27T04:00:08.992Z,0.20
2019-01-27T04:01:08.956Z,0.20
2019-01-27T04:02:08.943Z,0.20
2019-01-27T04:03:08.954Z,0.20
2019-01-27T04:04:08.934Z,0.20
2019-01-27T04:05:08.963Z,0.20
2019-01-27T04:06:08.913Z,0.20
2019-01-27T04:07:08.893Z,0.20
2019-01-27T04:08:08.881Z,0.10
2019-01-27T04:09:08.895Z,0.20
2019-01-27T04:10:08.864Z,0.20
2019-01-27T04:11:08.856Z,0.20
2019-01-27T04:12:08.850Z,0.10
2019-01-27T04:13:08.837Z,0.20
2019-01-27T04:14:08.811Z,0.10
2019-01-27T04:15:08.867Z,0.20
2019-01-27T04:16:08.795Z,0.20
2019-01-27T04:17:08.813Z,0.10
2019-01-27T04:18:08.805Z,0.20
2019-01-27T04:19:08.763Z,0.30
2019-01-27T04:20:08.766Z,0.20
2019-01-27T04:21:08.754Z,0.10
2019-01-27T04:22:08.752Z,0.10
2019-01-27T04:23:08.728Z,0.20
2019-01-27T04:24:08.710Z,0.20
2019-01-27T04:25:08.721Z,0.30
2019-01-27T04:26:08.687Z,0.20
2019-01-27T04:27:08.681Z,0.20
2019-01-27T04:28:08.676Z,0.20
2019-01-27T04:29:08.662Z,0.10
2019-01-27T04:30:08.714Z,0.10
2019-01-27T04:31:08.671Z,0.20
2019-01-27T04:32:08.639Z,0.10
2019-01-27T04:33:08.619Z,0.20
2019-01-27T04:34:08.637Z,0.20
2019-01-27T04:35:08.592Z,0.20
2019-01-27T04:36:08.607Z,0.20
2019-01-27T04:37:08.584Z,0.20
2019-01-27T04:38:08.565Z,0.30
2019-01-27T04:39:08.563Z,0.20
2019-01-27T04:40:08.563Z,0.20
2019-01-27T04:41:08.546Z,0.20
2019-01-27T04:42:08.522Z,0.10
2019-01-27T04:43:08.503Z,0.20
2019-01-27T04:44:08.510Z,0.10
2019-01-27T04:45:08.514Z,0.10
2019-01-27T04:46:08.501Z,0.30
2019-01-27T04:47:08.482Z,0.20
2019-01-27T04:48:08.459Z,0.20
2019-01-27T04:49:08.444Z,0.20
2019-01-27T04:50:08.420Z,0.20
2019-01-27T04:51:08.436Z,0.20
2019-01-27T04:52:08.413Z,0.10
2019-01-27T04:53:08.419Z,0.10
2019-01-27T04:54:08.397Z,0.20
2019-01-27T04:55:08.385Z,0.10
2019-01-27T04:56:08.418Z,0.10
2019-01-27T04:57:08.358Z,0.10
2019-01-27T04:58:08.347Z,0.20
2019-01-27T04:59:08.357Z,0.20
2019-01-27T05:00:08.352Z,0.20
2019-01-27T05:01:08.325Z,0.10
2019-01-27T05:02:08.342Z,0.10
2019-01-27T05:03:08.295Z,0.10
2019-01-27T05:04:08.278Z,0.20
2019-01-27T05:05:08.271Z,0.10
2019-01-27T05:06:08.256Z,0.10
2019-01-27T05:07:08.244Z,0.10
2019-01-27T05:08:08.260Z,0.20
2019-01-27T05:09:08.234Z,0.10
2019-01-27T05:10:08.216Z,0.10
2019-01-27T05:11:08.203Z,0.10
2019-01-27T05:12:08.270Z,0.30
2019-01-27T05:13:08.179Z,0.10
2019-01-27T05:14:08.189Z,0.10
2019-01-27T05:15:08.207Z,0.20
2019-01-27T05:16:08.145Z,0.10
2019-01-27T05:17:08.140Z,0.20
2019-01-27T05:18:08.141Z,0.10
2019-01-27T05:19:08.129Z,0.10
2019-01-27T05:20:08.118Z,0.10
2019-01-27T05:21:08.107Z,0.20
2019-01-27T05:22:08.158Z,0.10
2019-01-27T05:23:08.077Z,0.10
2019-01-27T05:24:08.095Z,0.20
2019-01-27T05:25:08.086Z,0.20
2019-01-27T05:26:08.051Z,0.10
2019-01-27T05:27:08.057Z,0.20
2019-01-27T05:28:08.051Z,0.10
2019-01-27T05:29:08.010Z,0.10
2019-01-27T05:30:07.991Z,0.10
2019-01-27T05:31:07.981Z,0.10
2019-01-27T05:32:08.019Z,0.10
2019-01-27T05:33:07.977Z,0.20
2019-01-27T05:34:07.953Z,0.20
2019-01-27T05:35:07.943Z,0.10
2019-01-27T05:36:07.932Z,0.10
2019-01-27T05:37:07.958Z,0.10
2019-01-27T05:38:07.921Z,0.10
2019-01-27T05:39:07.911Z,0.10
2019-01-27T05:40:07.890Z,0.10
2019-01-27T05:41:07.908Z,0.10
2019-01-27T05:42:07.856Z,0.20
2019-01-27T05:43:07.850Z,0.20
2019-01-27T05:44:07.860Z,0.20
2019-01-27T05:45:07.961Z,0.20
2019-01-27T05:46:07.822Z,0.20
2019-01-27T05:47:07.840Z,0.20
2019-01-27T05:48:07.796Z,0.30
2019-01-27T05:49:07.800Z,0.20
2019-01-27T05:50:07.790Z,0.20
2019-01-27T05:51:07.767Z,0.30
2019-01-27T05:52:07.759Z,0.30
2019-01-27T05:53:07.748Z,0.30
2019-01-27T05:54:07.771Z,0.30
2019-01-27T05:55:07.733Z,0.30
2019-01-27T05:56:07.718Z,0.30
2019-01-27T05:57:07.720Z,0.40
2019-01-27T05:58:07.695Z,0.30
2019-01-27T05:59:07.691Z,0.30
2019-01-27T06:00:07.689Z,0.30
2019-01-27T06:01:07.683Z,0.40
2019-01-27T06:02:07.649Z,0.30
2019-01-27T06:03:07.637Z,0.20
2019-01-27T06:04:07.634Z,0.20
2019-01-27T06:05:07.627Z,0.20
2019-01-27T06:06:07.655Z,0.40
2019-01-27T06:07:07.603Z,0.20
2019-01-27T06:08:07.597Z,0.30
2019-01-27T06:09:07.592Z,0.30
2019-01-27T06:10:07.563Z,0.20
2019-01-27T06:11:07.572Z,0.30
2019-01-27T06:12:07.589Z,0.20
2019-01-27T06:13:07.537Z,0.20
2019-01-27T06:14:07.520Z,0.30
2019-01-27T06:15:07.568Z,0.20
2019-01-27T06:16:07.503Z,0.20
2019-01-27T06:17:07.550Z,0.20
2019-01-27T06:18:07.543Z,0.30
2019-01-27T06:19:07.479Z,0.30
2019-01-27T06:20:07.445Z,0.20
2019-01-27T06:21:07.442Z,0.20
2019-01-27T06:22:07.456Z,0.20
2019-01-27T06:23:07.424Z,0.20
2019-01-27T06:24:07.414Z,0.30
2019-01-27T06:25:07.391Z,0.20
2019-01-27T06:26:07.384Z,0.30
2019-01-27T06:27:07.390Z,0.30
2019-01-27T06:28:07.373Z,0.20
2019-01-27T06:29:07.370Z,0.20
2019-01-27T06:30:07.351Z,0.30
2019-01-27T06:31:07.329Z,0.30
2019-01-27T06:32:07.345Z,0.20
2019-01-27T06:33:07.310Z,0.30
2019-01-27T06:34:07.295Z,0.20
2019-01-27T06:35:07.301Z,0.30
2019-01-27T06:36:07.281Z,0.30
2019-01-27T06:37:07.285Z,0.30
2019-01-27T06:38:07.263Z,0.20
2019-01-27T06:39:07.246Z,0.20
2019-01-27T06:40:07.277Z,0.20
2019-01-27T06:41:07.228Z,0.10
2019-01-27T06:42:07.234Z,0.30
2019-01-27T06:43:07.221Z,0.20
2019-01-27T06:44:07.196Z,0.20
2019-01-27T06:45:07.182Z,0.20
2019-01-27T06:46:07.186Z,0.30
2019-01-27T06:47:07.171Z,0.20
2019-01-27T06:48:07.153Z,0.30
2019-01-27T06:49:07.154Z,0.30
2019-01-27T06:50:07.150Z,0.20
2019-01-27T06:51:07.156Z,0.30
2019-01-27T06:52:07.101Z,0.20
2019-01-27T06:53:07.102Z,0.20
2019-01-27T06:54:07.112Z,0.20
2019-01-27T06:55:07.128Z,0.20
2019-01-27T06:56:07.087Z,0.20
2019-01-27T06:57:07.045Z,0.20
2019-01-27T06:58:07.050Z,0.30
2019-01-27T06:59:07.032Z,0.30
2019-01-27T07:00:07.021Z,0.20
2019-01-27T07:01:07.025Z,0.10
2019-01-27T07:02:07.019Z,0.30
2019-01-27T07:03:06.998Z,0.20
2019-01-27T07:04:06.977Z,0.20
2019-01-27T07:05:06.961Z,0.20
2019-01-27T07:06:06.961Z,0.20
2019-01-27T07:07:06.939Z,0.20
2019-01-27T07:08:06.933Z,0.30
2019-01-27T07:09:06.960Z,0.20
2019-01-27T07:10:06.903Z,0.30
2019-01-27T07:11:06.910Z,0.30
2019-01-27T07:12:06.886Z,0.20
2019-01-27T07:13:06.888Z,0.30
2019-01-27T07:14:06.871Z,0.20
2019-01-27T07:15:06.873Z,0.20
2019-01-27T07:16:06.868Z,0.10
2019-01-27T07:17:06.834Z,0.20
2019-01-27T07:18:06.830Z,0.20
2019-01-27T07:19:06.831Z,0.30
2019-01-27T07:20:06.821Z,0.20
2019-01-27T07:21:06.791Z,0.20
2019-01-27T07:22:06.814Z,0.30
2019-01-27T07:23:06.768Z,0.20
2019-01-27T07:24:06.757Z,0.30
2019-01-27T07:25:06.761Z,0.20
2019-01-27T07:26:06.814Z,0.20
2019-01-27T07:27:06.764Z,0.20
2019-01-27T07:28:06.718Z,0.30
2019-01-27T07:29:06.706Z,0.20
2019-01-27T07:30:06.726Z,0.20
2019-01-27T07:31:06.724Z,0.30
2019-01-27T07:32:06.670Z,0.40
2019-01-27T07:33:06.675Z,0.30
2019-01-27T07:34:06.688Z,0.20
2019-01-27T07:35:06.691Z,0.20
2019-01-27T07:36:06.622Z,0.30
2019-01-27T07:37:06.621Z,0.20
2019-01-27T07:38:06.601Z,0.30
2019-01-27T07:39:06.617Z,0.20
2019-01-27T07:40:06.604Z,0.20
2019-01-27T07:41:06.592Z,0.30
2019-01-27T07:42:06.562Z,0.30
2019-01-27T07:43:06.555Z,0.40
2019-01-27T07:44:06.558Z,0.20
2019-01-27T07:45:06.567Z,0.20
2019-01-27T07:46:06.526Z,0.30
2019-01-27T07:47:06.565Z,0.20
2019-01-27T07:48:06.504Z,0.30
2019-01-27T07:49:06.506Z,0.20
2019-01-27T07:50:06.502Z,0.30
2019-01-27T07:51:06.460Z,0.30
2019-01-27T07:52:06.463Z,0.40
2019-01-27T07:53:06.447Z,0.30
2019-01-27T07:54:06.466Z,0.30
2019-01-27T07:55:06.455Z,0.50
2019-01-27T07:56:06.420Z,0.60
2019-01-27T07:57:06.393Z,0.50
2019-01-27T07:58:06.394Z,0.40
2019-01-27T07:59:06.398Z,0.30
2019-01-27T08:00:06.362Z,0.60
2019-01-27T08:01:06.358Z,0.40
2019-01-27T08:02:06.339Z,0.60
2019-01-27T08:03:11.922Z,0.60
2019-01-27T08:04:07.352Z,0.60
2019-01-27T08:05:06.327Z,0.60
2019-01-27T08:06:06.307Z,0.60
2019-01-27T08:07:06.337Z,0.60
2019-01-27T08:08:06.278Z,0.50
2019-01-27T08:09:06.275Z,0.50
2019-01-27T08:10:06.299Z,0.50
2019-01-27T08:11:06.245Z,0.50
2019-01-27T08:12:06.307Z,0.40
2019-01-27T08:13:06.230Z,0.50
2019-01-27T08:14:06.225Z,0.50
2019-01-27T08:15:06.201Z,0.50
2019-01-27T08:16:06.210Z,0.60
2019-01-27T08:17:06.196Z,0.60
2019-01-27T08:18:06.213Z,0.50
2019-01-27T08:19:06.174Z,0.50
2019-01-27T08:20:06.252Z,0.40
2019-01-27T08:21:06.144Z,0.40
2019-01-27T08:22:06.143Z,0.40
2019-01-27T08:23:06.122Z,0.40
2019-01-27T08:24:06.121Z,0.50
2019-01-27T08:25:06.097Z,0.50
2019-01-27T08:26:06.137Z,0.60
2019-01-27T08:27:06.089Z,0.60
2019-01-27T08:28:06.083Z,0.60
2019-01-27T08:29:06.065Z,0.80
2019-01-27T08:30:06.066Z,0.50
2019-01-27T08:31:06.057Z,0.60
2019-01-27T08:32:06.013Z,0.50
2019-01-27T08:33:06.006Z,0.50
2019-01-27T08:34:06.010Z,0.40
2019-01-27T08:35:06.021Z,0.40
2019-01-27T08:36:05.974Z,0.40
2019-01-27T08:37:05.992Z,0.60
2019-01-27T08:38:05.960Z,0.50
2019-01-27T08:39:05.961Z,0.40
2019-01-27T08:40:05.928Z,0.70
2019-01-27T08:41:05.947Z,0.50
2019-01-27T08:42:05.906Z,0.40
2019-01-27T08:43:05.892Z,0.30
2019-01-27T08:44:05.892Z,0.60
2019-01-27T08:45:05.895Z,0.40
2019-01-27T08:46:05.865Z,0.60
2019-01-27T08:47:05.874Z,0.80
2019-01-27T08:48:05.872Z,0.70
2019-01-27T08:49:05.840Z,0.80
2019-01-27T08:50:05.841Z,0.50
2019-01-27T08:51:05.866Z,0.50
2019-01-27T08:52:05.808Z,0.40
2019-01-27T08:53:05.803Z,0.60
2019-01-27T08:54:05.787Z,0.50
2019-01-27T08:55:05.763Z,0.50
2019-01-27T08:56:05.763Z,0.50
2019-01-27T08:57:05.757Z,0.70
2019-01-27T08:58:05.756Z,0.50
2019-01-27T08:59:05.761Z,0.50
2019-01-27T09:00:05.717Z,0.70
2019-01-27T09:01:05.732Z,0.60
2019-01-27T09:02:05.741Z,0.40
2019-01-27T09:03:05.693Z,0.30
2019-01-27T09:04:05.698Z,0.50
2019-01-27T09:05:05.714Z,0.40
2019-01-27T09:06:05.649Z,0.60
2019-01-27T09:07:05.634Z,0.60
2019-01-27T09:08:05.655Z,0.30
2019-01-27T09:09:05.626Z,0.50
2019-01-27T09:10:05.623Z,0.40
2019-01-27T09:11:05.595Z,0.50
2019-01-27T09:12:05.603Z,0.50
2019-01-27T09:13:11.154Z,0.60
2019-01-27T09:14:06.576Z,0.40
2019-01-27T09:15:05.565Z,0.40
2019-01-27T09:16:05.607Z,0.40
2019-01-27T09:17:05.532Z,0.40
2019-01-27T09:18:05.516Z,0.60
2019-01-27T09:19:05.514Z,0.50
2019-01-27T09:20:05.497Z,0.50
2019-01-27T09:21:05.518Z,0.40
2019-01-27T09:22:05.494Z,0.40
2019-01-27T09:23:05.464Z,0.40
2019-01-27T09:24:05.462Z,0.60
2019-01-27T09:25:05.471Z,0.30
2019-01-27T09:26:05.448Z,0.50
2019-01-27T09:27:05.442Z,0.40
2019-01-27T09:28:05.419Z,0.50
2019-01-27T09:29:05.406Z,0.40
2019-01-27T09:30:05.389Z,0.40
2019-01-27T09:31:05.392Z,0.40
2019-01-27T09:32:05.374Z,0.40
2019-01-27T09:33:05.352Z,0.50
2019-01-27T09:34:05.343Z,0.40
2019-01-27T09:35:05.341Z,0.40
2019-01-27T09:36:05.317Z,0.40
2019-01-27T09:37:05.357Z,0.40
2019-01-27T09:38:05.312Z,0.40
2019-01-27T09:39:05.341Z,0.40
2019-01-27T09:40:05.282Z,0.50
2019-01-27T09:41:05.269Z,0.30
2019-01-27T09:42:05.258Z,0.50
2019-01-27T09:43:05.279Z,0.50
2019-01-27T09:44:05.267Z,0.50
2019-01-27T09:45:05.252Z,0.50
2019-01-27T09:46:11.125Z,0.40
2019-01-27T09:47:06.197Z,0.40
2019-01-27T09:48:05.204Z,0.50
2019-01-27T09:49:05.210Z,0.50
2019-01-27T09:50:05.182Z,0.50
2019-01-27T09:51:05.161Z,0.40
2019-01-27T09:52:05.181Z,0.60
2019-01-27T09:53:05.152Z,0.50
2019-01-27T09:54:05.133Z,0.40
2019-01-27T09:55:05.188Z,0.40
2019-01-27T09:56:05.122Z,0.40
2019-01-27T09:57:05.103Z,0.30
2019-01-27T09:58:05.079Z,0.30
2019-01-27T09:59:05.071Z,0.50
2019-01-27T10:00:05.071Z,0.40
2019-01-27T10:01:05.056Z,0.60
2019-01-27T10:02:05.058Z,0.50
2019-01-27T10:03:05.044Z,0.30
2019-01-27T10:04:05.041Z,0.40
2019-01-27T10:05:05.010Z,0.40
2019-01-27T10:06:05.009Z,0.50
2019-01-27T10:07:04.999Z,0.40
2019-01-27T10:08:04.967Z,0.30
2019-01-27T10:09:04.965Z,0.30
2019-01-27T10:10:04.969Z,0.30
2019-01-27T10:11:04.937Z,0.50
2019-01-27T10:12:04.966Z,0.40
2019-01-27T10:13:04.934Z,0.40
2019-01-27T10:14:04.913Z,0.30
2019-01-27T10:15:04.899Z,0.40
2019-01-27T10:16:04.893Z,0.30
2019-01-27T10:17:04.877Z,0.30
2019-01-27T10:18:04.867Z,0.40
2019-01-27T10:19:04.848Z,0.30
2019-01-27T10:20:04.855Z,0.30
2019-01-27T10:21:04.849Z,0.40
2019-01-27T10:22:04.819Z,0.50
2019-01-27T10:23:04.817Z,0.40
2019-01-27T10:24:04.801Z,0.30
2019-01-27T10:25:04.785Z,0.60
2019-01-27T10:26:04.778Z,0.40
2019-01-27T10:27:04.777Z,0.50
2019-01-27T10:28:04.850Z,0.30
2019-01-27T10:29:04.767Z,0.50
2019-01-27T10:30:04.769Z,0.50
2019-01-27T10:31:04.811Z,0.30
2019-01-27T10:32:04.768Z,0.60
2019-01-27T10:33:04.789Z,0.40
2019-01-27T10:34:04.704Z,0.30
2019-01-27T10:35:04.680Z,0.40
2019-01-27T10:36:04.663Z,0.40
2019-01-27T10:37:11.820Z,0.60
2019-01-27T10:38:05.643Z,0.30
2019-01-27T10:39:04.755Z,0.30
2019-01-27T10:40:09.676Z,0.40
2019-01-27T10:41:05.605Z,0.50
2019-01-27T10:42:04.611Z,0.40
2019-01-27T10:43:04.588Z,0.30
2019-01-27T10:44:04.582Z,0.50
2019-01-27T10:45:04.605Z,0.50
2019-01-27T10:46:04.557Z,0.60
2019-01-27T10:47:04.557Z,0.50
2019-01-27T10:48:04.548Z,0.60
2019-01-27T10:49:04.526Z,0.60
2019-01-27T10:50:04.522Z,0.70
2019-01-27T10:51:04.506Z,0.50
2019-01-27T10:52:05.516Z,0.70
2019-01-27T10:53:04.493Z,0.50
2019-01-27T10:54:04.480Z,0.60
2019-01-27T10:55:04.464Z,0.70
2019-01-27T10:56:04.454Z,0.70
2019-01-27T10:57:04.443Z,0.70
2019-01-27T10:58:04.469Z,0.70
2019-01-27T10:59:04.443Z,0.80
2019-01-27T11:00:04.422Z,0.70
2019-01-27T11:01:04.389Z,0.50
2019-01-27T11:02:04.378Z,0.50
2019-01-27T11:03:04.385Z,0.50
2019-01-27T11:04:04.367Z,0.60
2019-01-27T11:05:04.376Z,0.50
2019-01-27T11:06:04.338Z,0.50
2019-01-27T11:07:04.374Z,0.60
2019-01-27T11:08:04.400Z,0.50
2019-01-27T11:09:04.309Z,0.50
2019-01-27T11:10:04.298Z,0.60
2019-01-27T11:11:04.286Z,0.70
2019-01-27T11:12:04.266Z,0.70
2019-01-27T11:13:04.260Z,0.50
2019-01-27T11:14:04.268Z,0.50
2019-01-27T11:15:04.247Z,0.60
2019-01-27T11:16:04.256Z,0.50
2019-01-27T11:17:04.217Z,0.70
2019-01-27T11:18:04.206Z,0.60
2019-01-27T11:19:04.199Z,0.50
2019-01-27T11:20:04.199Z,0.60
2019-01-27T11:21:04.181Z,0.30
2019-01-27T11:22:04.180Z,0.50
2019-01-27T11:23:04.159Z,0.50
2019-01-27T11:24:04.189Z,0.50
2019-01-27T11:25:04.158Z,0.50
2019-01-27T11:26:04.114Z,0.60
2019-01-27T11:27:04.115Z,0.60
2019-01-27T11:28:04.108Z,0.70
2019-01-27T11:29:04.116Z,0.80
2019-01-27T11:30:04.143Z,0.60
2019-01-27T11:31:04.081Z,0.70
2019-01-27T11:32:04.052Z,0.70
2019-01-27T11:33:04.039Z,0.60
2019-01-27T11:34:04.041Z,0.50
2019-01-27T11:35:04.073Z,0.60
2019-01-27T11:36:04.032Z,0.60
2019-01-27T11:37:04.007Z,0.40
2019-01-27T11:38:04.015Z,0.60
2019-01-27T11:39:04.038Z,0.60
2019-01-27T11:40:03.982Z,0.40
2019-01-27T11:41:03.957Z,0.40
2019-01-27T11:42:03.963Z,0.60
2019-01-27T11:43:03.953Z,0.60
2019-01-27T11:44:03.929Z,0.40
2019-01-27T11:45:03.930Z,0.50
2019-01-27T11:46:03.908Z,0.50
2019-01-27T11:47:03.901Z,0.50
2019-01-27T11:48:03.894Z,0.40
2019-01-27T11:49:03.891Z,0.70
2019-01-27T11:50:03.861Z,0.80
2019-01-27T11:51:03.909Z,0.40
2019-01-27T11:52:03.841Z,0.50
2019-01-27T11:53:03.839Z,0.40
2019-01-27T11:54:03.810Z,0.70
2019-01-27T11:55:03.812Z,0.60
2019-01-27T11:56:03.802Z,0.50
2019-01-27T11:57:03.782Z,0.50
2019-01-27T11:58:03.794Z,0.60
2019-01-27T11:59:03.753Z,0.50
2019-01-27T12:00:03.789Z,0.60
2019-01-27T12:01:03.758Z,0.50
2019-01-27T12:02:03.742Z,0.60
2019-01-27T12:03:03.729Z,0.50
2019-01-27T12:04:03.731Z,0.50
2019-01-27T12:05:03.693Z,0.80
2019-01-27T12:06:03.761Z,0.60
2019-01-27T12:07:03.668Z,0.50
2019-01-27T12:08:03.666Z,0.40
2019-01-27T12:09:03.664Z,0.40
2019-01-27T12:10:03.644Z,0.60
2019-01-27T12:11:03.643Z,0.50
2019-01-27T12:12:03.656Z,0.50
2019-01-27T12:13:03.622Z,0.50
2019-01-27T12:14:03.604Z,0.40
2019-01-27T12:15:03.596Z,0.50
2019-01-27T12:16:03.616Z,0.40
2019-01-27T12:17:03.585Z,0.40
2019-01-27T12:18:03.553Z,0.50
2019-01-27T12:19:03.540Z,0.30
2019-01-27T12:20:03.537Z,0.30
2019-01-27T12:21:03.535Z,0.30
2019-01-27T12:22:03.521Z,0.30
2019-01-27T12:23:03.509Z,0.40
2019-01-27T12:24:03.486Z,0.40
2019-01-27T12:25:03.477Z,0.30
2019-01-27T12:26:03.472Z,0.30
2019-01-27T12:27:03.565Z,0.30
2019-01-27T12:28:03.461Z,0.40
2019-01-27T12:29:03.434Z,0.40
2019-01-27T12:30:03.419Z,0.30
2019-01-27T12:31:03.430Z,0.40
2019-01-27T12:32:03.419Z,0.50
2019-01-27T12:33:03.434Z,0.30
2019-01-27T12:34:03.455Z,0.40
2019-01-27T12:35:03.376Z,0.40
2019-01-27T12:36:03.394Z,0.40
2019-01-27T12:37:03.358Z,0.30
2019-01-27T12:38:03.333Z,0.30
2019-01-27T12:39:03.329Z,0.30
2019-01-27T12:40:03.319Z,0.30
2019-01-27T12:41:03.303Z,0.20
2019-01-27T12:42:03.446Z,0.30
2019-01-27T12:43:03.283Z,0.40
2019-01-27T12:44:03.260Z,0.30
2019-01-27T12:45:03.255Z,0.20
2019-01-27T12:46:03.275Z,0.30
2019-01-27T12:47:03.270Z,0.20
2019-01-27T12:48:03.223Z,0.20
2019-01-27T12:49:03.211Z,0.20
2019-01-27T12:50:03.217Z,0.20
2019-01-27T12:51:03.187Z,0.30
2019-01-27T12:52:03.200Z,0.30
2019-01-27T12:53:03.172Z,0.30
2019-01-27T12:54:03.163Z,0.30
2019-01-27T12:55:03.150Z,0.20
2019-01-27T12:56:03.141Z,0.30
2019-01-27T12:57:03.122Z,0.30
2019-01-27T12:58:03.129Z,0.20
2019-01-27T12:59:03.100Z,0.20
2019-01-27T13:00:03.099Z,0.20
2019-01-27T13:01:03.087Z,0.40
2019-01-27T13:02:03.088Z,0.50
2019-01-27T13:03:03.074Z,0.30
2019-01-27T13:04:03.050Z,0.40
2019-01-27T13:05:03.046Z,0.50
2019-01-27T13:06:03.068Z,0.30
2019-01-27T13:07:03.073Z,0.40
2019-01-27T13:08:03.025Z,0.30
2019-01-27T13:09:03.068Z,0.20
2019-01-27T13:10:02.988Z,0.30
2019-01-27T13:11:05.698Z,0.30
2019-01-27T13:12:02.976Z,0.30
2019-01-27T13:13:02.962Z,0.40
2019-01-27T13:14:02.972Z,0.30
2019-01-27T13:15:02.936Z,0.40
2019-01-27T13:16:02.925Z,0.40
2019-01-27T13:17:07.436Z,0.40
2019-01-27T13:18:02.920Z,0.30